sensor_id;sensor_type;location;lat;lon;timestamp;pressure;altitude;pressure_sealevel;temperature;humidity
73316;BME280;61545;53.726;-0.444;2024-01-16T00:00:34;1008.2;;;-1.3;100.0
73316;BME280;61545;53.726;-0.444;2024-01-16T00:05:34;1008.2;;;-1.3;100.0
73316;BME280;61545;53.726;-0.444;2024-01-16T00:10:34;1008.1;;;-1.3;100.0
73316;BME280;61545;53.726;-0.444;2024-01-16T00:15:34;1008.0;;;-1.2;100.0
73316;BME280;61545;53.726;-0.444;2024-01-16T00:20:34;1008.1;;;-1.3;100.0
73316;BME280;61545;53.726;-0.444;2024-01-16T00:25:34;1008.0;;;-1.2;100.0
73316;BME280;61545;53.726;-0.444;2024-01-16T00:30:34;1007.9;;;-1.1;100.0
73316;BME280;61545;53.726;-0.444;2024-01-16T00:35:34;1007.9;;;-1.1;100.0
73316;BME280;61545;53.726;-0.444;2024-01-16T00:40:34;1007.9;;;-1.1;100.0
73316;BME280;61545;53.726;-0.444;2024-01-16T00:45:34;1007.8;;;-1.1;100.0
73316;BME280;61545;53.726;-0.444;2024-01-16T00:50:34;1007.7;;;-1.0;100.0
73316;BME280;61545;53.726;-0.444;2024-01-16T00:55:34;1007.7;;;-1.1;100.0
73316;BME280;61545;53.726;-0.444;2024-01-16T01:00:34;1007.7;;;-1.1;100.0
73316;BME280;61545;53.726;-0.444;2024-01-16T01:05:34;1007.7;;;-1.0;100.0
73316;BME280;61545;53.726;-0.444;2024-01-16T01:10:34;1007.7;;;-1.0;100.0
73316;BME280;61545;53.726;-0.444;2024-01-16T01:15:34;1007.7;;;-1.0;100.0
73316;BME280;61545;53.726;-0.444;2024-01-16T01:20:34;1007.6;;;-1.0;100.0
73316;BME280;61545;53.726;-0.444;2024-01-16T01:25:34;1007.6;;;-1.0;100.0
73316;BME280;61545;53.726;-0.444;2024-01-16T01:30:34;1007.5;;;-0.9;100.0
73316;BME280;61545;53.726;-0.444;2024-01-16T01:35:34;1007.5;;;-1.0;100.0
73316;BME280;61545;53.726;-0.444;2024-01-16T01:40:34;1007.4;;;-1.0;100.0
73316;BME280;61545;53.726;-0.444;2024-01-16T01:45:34;1007.4;;;-1.0;100.0
73316;BME280;61545;53.726;-0.444;2024-01-16T01:50:34;1007.3;;;-1.0;100.0
73316;BME280;61545;53.726;-0.444;2024-01-16T01:55:34;1007.3;;;-1.0;100.0
73316;BME280;61545;53.726;-0.444;2024-01-16T02:00:34;1007.2;;;-1.0;100.0
73316;BME280;61545;53.726;-0.444;2024-01-16T02:05:34;1007.2;;;-1.0;100.0
73316;BME280;61545;53.726;-0.444;2024-01-16T02:10:34;1007.2;;;-0.8;100.0
73316;BME280;61545;53.726;-0.444;2024-01-16T02:15:34;1007.2;;;-0.9;100.0
73316;BME280;61545;53.726;-0.444;2024-01-16T02:20:34;1007.1;;;-0.8;100.0
73316;BME280;61545;53.726;-0.444;2024-01-16T02:25:34;1007.1;;;-0.8;100.0
73316;BME280;61545;53.726;-0.444;2024-01-16T02:30:34;1007.0;;;-0.9;100.0
73316;BME280;61545;53.726;-0.444;2024-01-16T02:35:34;1006.9;;;-0.8;100.0
73316;BME280;61545;53.726;-0.444;2024-01-16T02:40:34;1006.9;;;-0.8;100.0
73316;BME280;61545;53.726;-0.444;2024-01-16T02:45:34;1006.9;;;-0.8;100.0
73316;BME280;61545;53.726;-0.444;2024-01-16T02:50:34;1006.9;;;-0.8;100.0
73316;BME280;61545;53.726;-0.444;2024-01-16T02:55:34;1006.9;;;-1.0;100.0
73316;BME280;61545;53.726;-0.444;2024-01-16T03:00:34;1006.9;;;-0.7;100.0
73316;BME280;61545;53.726;-0.444;2024-01-16T03:05:34;1006.9;;;-0.6;100.0
73316;BME280;61545;53.726;-0.444;2024-01-16T03:10:34;1006.8;;;-0.6;100.0
73316;BME280;61545;53.726;-0.444;2024-01-16T03:15:34;1006.7;;;-0.7;100.0
73316;BME280;61545;53.726;-0.444;2024-01-16T03:20:34;1006.6;;;-0.7;100.0
73316;BME280;61545;53.726;-0.444;2024-01-16T03:25:34;1006.6;;;-0.7;100.0
73316;BME280;61545;53.726;-0.444;2024-01-16T03:30:34;1006.5;;;-1.0;100.0
73316;BME280;61545;53.726;-0.444;2024-01-16T03:35:34;1006.5;;;-0.7;100.0
73316;BME280;61545;53.726;-0.444;2024-01-16T03:40:34;1006.4;;;-0.8;100.0
73316;BME280;61545;53.726;-0.444;2024-01-16T03:45:34;1006.4;;;-0.8;100.0
73316;BME280;61545;53.726;-0.444;2024-01-16T03:50:34;1006.3;;;-0.7;100.0
73316;BME280;61545;53.726;-0.444;2024-01-16T03:55:34;1006.4;;;-0.8;100.0
73316;BME280;61545;53.726;-0.444;2024-01-16T04:00:34;1006.3;;;-0.8;100.0
73316;BME280;61545;53.726;-0.444;2024-01-16T04:05:34;1006.2;;;-0.8;100.0
73316;BME280;61545;53.726;-0.444;2024-01-16T04:10:34;1006.1;;;-0.8;100.0
73316;BME280;61545;53.726;-0.444;2024-01-16T04:15:35;1006.1;;;-0.8;100.0
73316;BME280;61545;53.726;-0.444;2024-01-16T04:20:34;1006.0;;;-0.9;100.0
73316;BME280;61545;53.726;-0.444;2024-01-16T04:25:34;1005.9;;;-0.7;100.0
73316;BME280;61545;53.726;-0.444;2024-01-16T04:30:34;1005.9;;;-0.8;100.0
73316;BME280;61545;53.726;-0.444;2024-01-16T04:35:34;1005.9;;;-0.8;100.0
73316;BME280;61545;53.726;-0.444;2024-01-16T04:40:34;1005.9;;;-0.7;100.0
73316;BME280;61545;53.726;-0.444;2024-01-16T04:45:34;1005.9;;;-0.6;100.0
73316;BME280;61545;53.726;-0.444;2024-01-16T04:50:34;1005.9;;;-0.6;100.0
73316;BME280;61545;53.726;-0.444;2024-01-16T04:55:34;1005.7;;;-0.8;100.0
73316;BME280;61545;53.726;-0.444;2024-01-16T05:00:34;1005.7;;;-0.7;100.0
73316;BME280;61545;53.726;-0.444;2024-01-16T05:05:34;1005.7;;;-0.8;100.0
73316;BME280;61545;53.726;-0.444;2024-01-16T05:10:34;1005.6;;;-0.8;100.0
73316;BME280;61545;53.726;-0.444;2024-01-16T05:15:34;1005.6;;;-0.8;100.0
73316;BME280;61545;53.726;-0.444;2024-01-16T05:20:34;1005.5;;;-0.8;100.0
73316;BME280;61545;53.726;-0.444;2024-01-16T05:25:34;1005.5;;;-0.9;100.0
73316;BME280;61545;53.726;-0.444;2024-01-16T05:30:34;1005.4;;;-0.7;100.0
73316;BME280;61545;53.726;-0.444;2024-01-16T05:35:34;1005.3;;;-0.6;100.0
73316;BME280;61545;53.726;-0.444;2024-01-16T05:40:34;1005.2;;;-0.7;100.0
73316;BME280;61545;53.726;-0.444;2024-01-16T05:45:34;1005.3;;;-0.7;100.0
73316;BME280;61545;53.726;-0.444;2024-01-16T05:50:34;1005.2;;;-0.8;100.0
73316;BME280;61545;53.726;-0.444;2024-01-16T05:55:34;1005.2;;;-0.6;100.0
73316;BME280;61545;53.726;-0.444;2024-01-16T06:00:34;1005.0;;;-0.7;100.0
73316;BME280;61545;53.726;-0.444;2024-01-16T06:05:34;1005.0;;;-0.7;100.0
73316;BME280;61545;53.726;-0.444;2024-01-16T06:10:34;1005.0;;;-0.6;100.0
73316;BME280;61545;53.726;-0.444;2024-01-16T06:15:34;1005.0;;;-0.7;100.0
73316;BME280;61545;53.726;-0.444;2024-01-16T06:20:34;1004.8;;;-0.8;100.0
73316;BME280;61545;53.726;-0.444;2024-01-16T06:25:34;1004.8;;;-0.6;100.0
73316;BME280;61545;53.726;-0.444;2024-01-16T06:30:34;1004.6;;;-0.8;100.0
73316;BME280;61545;53.726;-0.444;2024-01-16T06:35:34;1004.6;;;-0.8;100.0
73316;BME280;61545;53.726;-0.444;2024-01-16T06:40:34;1004.6;;;-0.9;100.0
73316;BME280;61545;53.726;-0.444;2024-01-16T06:45:34;1004.5;;;-0.8;100.0
73316;BME280;61545;53.726;-0.444;2024-01-16T06:50:34;1004.6;;;-0.9;100.0
73316;BME280;61545;53.726;-0.444;2024-01-16T06:55:34;1004.5;;;-0.8;100.0
73316;BME280;61545;53.726;-0.444;2024-01-16T07:00:34;1004.5;;;-0.9;100.0
73316;BME280;61545;53.726;-0.444;2024-01-16T07:05:34;1004.5;;;-1.0;100.0
73316;BME280;61545;53.726;-0.444;2024-01-16T07:10:34;1004.4;;;-0.8;100.0
73316;BME280;61545;53.726;-0.444;2024-01-16T07:15:34;1004.4;;;-0.8;100.0
73316;BME280;61545;53.726;-0.444;2024-01-16T07:20:34;1004.4;;;-0.8;100.0
73316;BME280;61545;53.726;-0.444;2024-01-16T07:25:34;1004.4;;;-0.8;100.0
73316;BME280;61545;53.726;-0.444;2024-01-16T07:30:34;1004.3;;;-0.8;100.0
73316;BME280;61545;53.726;-0.444;2024-01-16T07:35:34;1004.2;;;-0.9;100.0
73316;BME280;61545;53.726;-0.444;2024-01-16T07:40:34;1004.3;;;-1.0;100.0
73316;BME280;61545;53.726;-0.444;2024-01-16T07:45:34;1004.2;;;-0.9;100.0
73316;BME280;61545;53.726;-0.444;2024-01-16T07:50:34;1004.2;;;-0.8;100.0
73316;BME280;61545;53.726;-0.444;2024-01-16T07:55:34;1004.1;;;-0.9;100.0
73316;BME280;61545;53.726;-0.444;2024-01-16T08:00:34;1004.1;;;-1.0;100.0
73316;BME280;61545;53.726;-0.444;2024-01-16T08:05:34;1004.1;;;-0.8;100.0
73316;BME280;61545;53.726;-0.444;2024-01-16T08:10:34;1004.0;;;-1.1;100.0
73316;BME280;61545;53.726;-0.444;2024-01-16T08:15:34;1003.9;;;-0.8;100.0
73316;BME280;61545;53.726;-0.444;2024-01-16T08:20:34;1003.9;;;-0.8;100.0
73316;BME280;61545;53.726;-0.444;2024-01-16T08:25:34;1004.0;;;-0.8;100.0
73316;BME280;61545;53.726;-0.444;2024-01-16T08:30:34;1003.9;;;-0.9;100.0
73316;BME280;61545;53.726;-0.444;2024-01-16T08:35:34;1003.8;;;-0.8;100.0
73316;BME280;61545;53.726;-0.444;2024-01-16T08:40:34;1003.8;;;-0.8;100.0
73316;BME280;61545;53.726;-0.444;2024-01-16T08:45:34;1003.8;;;-0.6;100.0
73316;BME280;61545;53.726;-0.444;2024-01-16T08:50:34;1003.7;;;-0.7;100.0
73316;BME280;61545;53.726;-0.444;2024-01-16T08:55:34;1003.6;;;-0.7;100.0
73316;BME280;61545;53.726;-0.444;2024-01-16T09:00:34;1003.6;;;-0.7;100.0
73316;BME280;61545;53.726;-0.444;2024-01-16T09:05:34;1003.6;;;-0.6;100.0
73316;BME280;61545;53.726;-0.444;2024-01-16T09:10:34;1003.5;;;-0.3;100.0
73316;BME280;61545;53.726;-0.444;2024-01-16T09:15:34;1003.4;;;-0.3;100.0
73316;BME280;61545;53.726;-0.444;2024-01-16T09:20:34;1003.4;;;-0.3;100.0
73316;BME280;61545;53.726;-0.444;2024-01-16T09:25:34;1003.2;;;-0.3;100.0
73316;BME280;61545;53.726;-0.444;2024-01-16T09:30:34;1003.2;;;-0.3;100.0
73316;BME280;61545;53.726;-0.444;2024-01-16T09:35:34;1003.1;;;-0.3;100.0
73316;BME280;61545;53.726;-0.444;2024-01-16T09:40:34;1003.1;;;-0.1;100.0
73316;BME280;61545;53.726;-0.444;2024-01-16T09:45:34;1003.0;;;-0.1;100.0
73316;BME280;61545;53.726;-0.444;2024-01-16T09:50:34;1002.9;;;-0.1;100.0
73316;BME280;61545;53.726;-0.444;2024-01-16T09:55:34;1002.9;;;0.0;100.0
73316;BME280;61545;53.726;-0.444;2024-01-16T10:00:34;1002.9;;;0.2;100.0
73316;BME280;61545;53.726;-0.444;2024-01-16T10:05:34;1002.9;;;0.2;100.0
73316;BME280;61545;53.726;-0.444;2024-01-16T10:10:34;1002.8;;;0.2;100.0
73316;BME280;61545;53.726;-0.444;2024-01-16T10:15:34;1002.6;;;0.2;100.0
73316;BME280;61545;53.726;-0.444;2024-01-16T10:20:34;1002.6;;;0.1;100.0
73316;BME280;61545;53.726;-0.444;2024-01-16T10:25:34;1002.7;;;0.3;100.0
73316;BME280;61545;53.726;-0.444;2024-01-16T10:30:34;1002.6;;;0.2;100.0
73316;BME280;61545;53.726;-0.444;2024-01-16T10:35:34;1002.5;;;0.3;100.0
73316;BME280;61545;53.726;-0.444;2024-01-16T10:40:34;1002.5;;;unknown;100.0
73316;BME280;61545;53.726;-0.444;2024-01-16T10:45:34;1002.4;;;0.4;100.0
73316;BME280;61545;53.726;-0.444;2024-01-16T10:50:34;1002.4;;;0.3;100.0
73316;BME280;61545;53.726;-0.444;2024-01-16T10:55:37;1002.4;;;0.4;100.0
73316;BME280;61545;53.726;-0.444;2024-01-16T11:00:34;1002.3;;;0.4;100.0
73316;BME280;61545;53.726;-0.444;2024-01-16T11:05:34;1002.2;;;0.4;100.0
73316;BME280;61545;53.726;-0.444;2024-01-16T11:10:34;1002.2;;;0.5;100.0
73316;BME280;61545;53.726;-0.444;2024-01-16T11:15:34;1002.1;;;0.5;100.0
73316;BME280;61545;53.726;-0.444;2024-01-16T11:20:34;1002.0;;;0.4;100.0
73316;BME280;61545;53.726;-0.444;2024-01-16T11:25:34;1001.9;;;0.4;100.0
73316;BME280;61545;53.726;-0.444;2024-01-16T11:30:34;1001.8;;;0.4;100.0
73316;BME280;61545;53.726;-0.444;2024-01-16T11:35:35;1001.6;;;0.5;100.0
73316;BME280;61545;53.726;-0.444;2024-01-16T11:40:34;1001.5;;;0.5;100.0
73316;BME280;61545;53.726;-0.444;2024-01-16T11:46:05;1001.4;;;0.6;100.0
73316;BME280;61545;53.726;-0.444;2024-01-16T11:50:34;1001.4;;;0.7;100.0
73316;BME280;61545;53.726;-0.444;2024-01-16T11:55:34;1001.4;;;0.7;100.0
73316;BME280;61545;53.726;-0.444;2024-01-16T12:00:34;1001.4;;;0.8;100.0
73316;BME280;61545;53.726;-0.444;2024-01-16T12:05:34;1001.3;;;unknown;100.0
73316;BME280;61545;53.726;-0.444;2024-01-16T12:10:34;1001.3;;;0.7;100.0
73316;BME280;61545;53.726;-0.444;2024-01-16T12:15:34;1001.2;;;0.7;100.0
73316;BME280;61545;53.726;-0.444;2024-01-16T12:20:35;1001.1;;;0.9;100.0
73316;BME280;61545;53.726;-0.444;2024-01-16T12:25:36;1001.0;;;1.0;100.0
73316;BME280;61545;53.726;-0.444;2024-01-16T12:30:34;1000.8;;;1.0;100.0
73316;BME280;61545;53.726;-0.444;2024-01-16T12:35:35;1000.7;;;0.9;100.0
73316;BME280;61545;53.726;-0.444;2024-01-16T12:40:34;1000.6;;;0.9;100.0
73316;BME280;61545;53.726;-0.444;2024-01-16T12:45:34;1000.4;;;1.0;100.0
73316;BME280;61545;53.726;-0.444;2024-01-16T12:50:34;1000.3;;;1.0;100.0
73316;BME280;61545;53.726;-0.444;2024-01-16T12:55:35;1000.1;;;1.1;100.0
73316;BME280;61545;53.726;-0.444;2024-01-16T13:00:34;1000.0;;;1.0;100.0
73316;BME280;61545;53.726;-0.444;2024-01-16T13:05:34;999.8;;;1.1;100.0
73316;BME280;61545;53.726;-0.444;2024-01-16T13:10:34;999.7;;;1.2;100.0
73316;BME280;61545;53.726;-0.444;2024-01-16T13:15:34;999.5;;;1.3;100.0
73316;BME280;61545;53.726;-0.444;2024-01-16T13:20:34;999.4;;;1.5;100.0
73316;BME280;61545;53.726;-0.444;2024-01-16T13:25:34;999.2;;;1.6;100.0
73316;BME280;61545;53.726;-0.444;2024-01-16T13:30:34;999.2;;;1.6;100.0
73316;BME280;61545;53.726;-0.444;2024-01-16T13:35:34;999.0;;;1.7;100.0
73316;BME280;61545;53.726;-0.444;2024-01-16T13:40:34;998.9;;;1.7;100.0
73316;BME280;61545;53.726;-0.444;2024-01-16T13:45:34;998.8;;;1.7;100.0
73316;BME280;61545;53.726;-0.444;2024-01-16T13:50:34;998.7;;;1.7;100.0
73316;BME280;61545;53.726;-0.444;2024-01-16T13:55:34;998.6;;;1.7;100.0
73316;BME280;61545;53.726;-0.444;2024-01-16T14:00:34;998.5;;;1.7;100.0
73316;BME280;61545;53.726;-0.444;2024-01-16T14:05:34;998.4;;;1.7;100.0
73316;BME280;61545;53.726;-0.444;2024-01-16T14:10:34;998.3;;;1.8;100.0
73316;BME280;61545;53.726;-0.444;2024-01-16T14:15:34;998.2;;;1.8;100.0
73316;BME280;61545;53.726;-0.444;2024-01-16T14:20:34;998.1;;;1.8;100.0
73316;BME280;61545;53.726;-0.444;2024-01-16T14:25:34;997.9;;;1.8;100.0
73316;BME280;61545;53.726;-0.444;2024-01-16T14:30:34;997.8;;;1.8;100.0
73316;BME280;61545;53.726;-0.444;2024-01-16T14:35:34;997.8;;;1.8;100.0
73316;BME280;61545;53.726;-0.444;2024-01-16T14:40:34;997.7;;;1.8;100.0
73316;BME280;61545;53.726;-0.444;2024-01-16T14:45:34;997.7;;;1.8;100.0
73316;BME280;61545;53.726;-0.444;2024-01-16T14:50:34;997.6;;;1.9;100.0
73316;BME280;61545;53.726;-0.444;2024-01-16T14:55:34;997.5;;;1.9;100.0
73316;BME280;61545;53.726;-0.444;2024-01-16T15:00:34;997.2;;;1.9;100.0
73316;BME280;61545;53.726;-0.444;2024-01-16T15:05:34;997.2;;;1.9;100.0
73316;BME280;61545;53.726;-0.444;2024-01-16T15:10:34;997.2;;;1.9;100.0
73316;BME280;61545;53.726;-0.444;2024-01-16T15:15:34;997.2;;;1.9;100.0
73316;BME280;61545;53.726;-0.444;2024-01-16T15:20:34;997.1;;;2.0;100.0
73316;BME280;61545;53.726;-0.444;2024-01-16T15:25:34;997.1;;;2.0;100.0
73316;BME280;61545;53.726;-0.444;2024-01-16T15:30:34;997.0;;;2.0;100.0
73316;BME280;61545;53.726;-0.444;2024-01-16T15:35:34;996.9;;;2.0;100.0
73316;BME280;61545;53.726;-0.444;2024-01-16T15:40:34;996.8;;;2.0;100.0
73316;BME280;61545;53.726;-0.444;2024-01-16T15:45:34;996.8;;;2.0;100.0
73316;BME280;61545;53.726;-0.444;2024-01-16T15:50:34;996.7;;;2.0;100.0
73316;BME280;61545;53.726;-0.444;2024-01-16T15:55:35;996.6;;;2.0;100.0
73316;BME280;61545;53.726;-0.444;2024-01-16T16:00:34;996.4;;;2.1;100.0
73316;BME280;61545;53.726;-0.444;2024-01-16T16:05:34;996.4;;;2.2;100.0
73316;BME280;61545;53.726;-0.444;2024-01-16T16:10:34;996.3;;;2.2;100.0
73316;BME280;61545;53.726;-0.444;2024-01-16T16:15:34;996.3;;;2.2;100.0
73316;BME280;61545;53.726;-0.444;2024-01-16T16:20:34;996.2;;;2.2;100.0
73316;BME280;61545;53.726;-0.444;2024-01-16T16:25:34;996.1;;;2.2;100.0
73316;BME280;61545;53.726;-0.444;2024-01-16T16:30:34;996.1;;;2.2;100.0
73316;BME280;61545;53.726;-0.444;2024-01-16T16:35:34;996.0;;;2.2;100.0
73316;BME280;61545;53.726;-0.444;2024-01-16T16:40:35;995.9;;;2.3;100.0
73316;BME280;61545;53.726;-0.444;2024-01-16T16:45:34;995.9;;;2.2;100.0
73316;BME280;61545;53.726;-0.444;2024-01-16T16:50:34;995.8;;;2.3;100.0
73316;BME280;61545;53.726;-0.444;2024-01-16T16:55:34;995.7;;;2.3;100.0
73316;BME280;61545;53.726;-0.444;2024-01-16T17:00:34;995.7;;;2.3;100.0
73316;BME280;61545;53.726;-0.444;2024-01-16T17:05:34;995.6;;;2.3;100.0
73316;BME280;61545;53.726;-0.444;2024-01-16T17:10:34;995.5;;;2.3;100.0
73316;BME280;61545;53.726;-0.444;2024-01-16T17:15:34;995.4;;;2.3;100.0
73316;BME280;61545;53.726;-0.444;2024-01-16T17:20:34;995.4;;;2.3;100.0
73316;BME280;61545;53.726;-0.444;2024-01-16T17:25:34;995.3;;;2.3;100.0
73316;BME280;61545;53.726;-0.444;2024-01-16T17:30:34;995.2;;;2.3;100.0
73316;BME280;61545;53.726;-0.444;2024-01-16T17:35:34;995.2;;;2.3;100.0
73316;BME280;61545;53.726;-0.444;2024-01-16T17:40:35;995.3;;;2.3;100.0
73316;BME280;61545;53.726;-0.444;2024-01-16T17:45:34;995.2;;;2.3;100.0
73316;BME280;61545;53.726;-0.444;2024-01-16T17:50:35;995.2;;;2.3;100.0
73316;BME280;61545;53.726;-0.444;2024-01-16T17:55:34;995.1;;;2.4;100.0
73316;BME280;61545;53.726;-0.444;2024-01-16T18:00:34;995.0;;;2.4;100.0
73316;BME280;61545;53.726;-0.444;2024-01-16T18:05:34;995.0;;;2.4;100.0
73316;BME280;61545;53.726;-0.444;2024-01-16T18:10:34;994.9;;;2.3;100.0
73316;BME280;61545;53.726;-0.444;2024-01-16T18:15:34;994.9;;;2.5;100.0
73316;BME280;61545;53.726;-0.444;2024-01-16T18:20:34;994.9;;;2.4;100.0
73316;BME280;61545;53.726;-0.444;2024-01-16T18:25:34;994.8;;;2.3;100.0
73316;BME280;61545;53.726;-0.444;2024-01-16T18:30:34;994.8;;;2.4;100.0
73316;BME280;61545;53.726;-0.444;2024-01-16T18:35:34;994.7;;;2.3;100.0
73316;BME280;61545;53.726;-0.444;2024-01-16T18:40:34;994.6;;;2.3;100.0
73316;BME280;61545;53.726;-0.444;2024-01-16T18:45:34;994.6;;;2.3;100.0
73316;BME280;61545;53.726;-0.444;2024-01-16T18:50:34;994.5;;;2.2;100.0
73316;BME280;61545;53.726;-0.444;2024-01-16T18:55:34;994.3;;;2.3;100.0
73316;BME280;61545;53.726;-0.444;2024-01-16T19:00:34;994.2;;;2.2;100.0
73316;BME280;61545;53.726;-0.444;2024-01-16T19:05:34;994.2;;;2.3;100.0
73316;BME280;61545;53.726;-0.444;2024-01-16T19:10:34;994.3;;;2.3;100.0
73316;BME280;61545;53.726;-0.444;2024-01-16T19:15:34;994.2;;;2.3;100.0
73316;BME280;61545;53.726;-0.444;2024-01-16T19:20:34;994.2;;;2.2;100.0
73316;BME280;61545;53.726;-0.444;2024-01-16T19:25:34;994.2;;;2.2;100.0
73316;BME280;61545;53.726;-0.444;2024-01-16T19:30:34;994.2;;;2.2;100.0
73316;BME280;61545;53.726;-0.444;2024-01-16T19:35:34;994.1;;;2.2;100.0
73316;BME280;61545;53.726;-0.444;2024-01-16T19:40:34;994.1;;;2.2;100.0
73316;BME280;61545;53.726;-0.444;2024-01-16T19:45:34;994.0;;;2.2;100.0
73316;BME280;61545;53.726;-0.444;2024-01-16T19:50:34;993.9;;;2.2;100.0
73316;BME280;61545;53.726;-0.444;2024-01-16T19:55:34;993.9;;;2.2;100.0
73316;BME280;61545;53.726;-0.444;2024-01-16T20:00:34;993.9;;;2.1;100.0
73316;BME280;61545;53.726;-0.444;2024-01-16T20:05:34;993.8;;;2.1;100.0
73316;BME280;61545;53.726;-0.444;2024-01-16T20:10:34;993.8;;;2.2;100.0
73316;BME280;61545;53.726;-0.444;2024-01-16T20:15:34;993.7;;;2.0;100.0
73316;BME280;61545;53.726;-0.444;2024-01-16T20:20:34;993.7;;;2.1;100.0
73316;BME280;61545;53.726;-0.444;2024-01-16T20:25:34;993.6;;;2.2;100.0
73316;BME280;61545;53.726;-0.444;2024-01-16T20:30:34;993.5;;;2.1;100.0
73316;BME280;61545;53.726;-0.444;2024-01-16T20:35:34;993.5;;;2.0;100.0
73316;BME280;61545;53.726;-0.444;2024-01-16T20:40:34;993.3;;;2.0;100.0
73316;BME280;61545;53.726;-0.444;2024-01-16T20:45:34;993.3;;;2.0;100.0
73316;BME280;61545;53.726;-0.444;2024-01-16T20:50:34;993.2;;;2.0;100.0
73316;BME280;61545;53.726;-0.444;2024-01-16T20:55:34;993.3;;;2.0;100.0
73316;BME280;61545;53.726;-0.444;2024-01-16T21:00:34;993.2;;;2.0;100.0
73316;BME280;61545;53.726;-0.444;2024-01-16T21:05:34;993.2;;;1.9;100.0
73316;BME280;61545;53.726;-0.444;2024-01-16T21:10:34;993.1;;;2.0;100.0
73316;BME280;61545;53.726;-0.444;2024-01-16T21:15:34;993.0;;;2.0;100.0
73316;BME280;61545;53.726;-0.444;2024-01-16T21:20:34;992.9;;;2.0;100.0
73316;BME280;61545;53.726;-0.444;2024-01-16T21:25:34;992.8;;;2.0;100.0
73316;BME280;61545;53.726;-0.444;2024-01-16T21:30:34;992.8;;;1.9;100.0
73316;BME280;61545;53.726;-0.444;2024-01-16T21:35:34;992.7;;;1.9;100.0
73316;BME280;61545;53.726;-0.444;2024-01-16T21:40:34;992.7;;;2.0;100.0
73316;BME280;61545;53.726;-0.444;2024-01-16T21:45:34;992.7;;;2.0;100.0
73316;BME280;61545;53.726;-0.444;2024-01-16T21:50:34;992.6;;;2.0;100.0
73316;BME280;61545;53.726;-0.444;2024-01-16T21:55:34;992.5;;;1.9;100.0
73316;BME280;61545;53.726;-0.444;2024-01-16T22:00:34;992.5;;;1.9;100.0
73316;BME280;61545;53.726;-0.444;2024-01-16T22:05:34;992.5;;;1.9;100.0
73316;BME280;61545;53.726;-0.444;2024-01-16T22:10:34;992.5;;;1.9;100.0
73316;BME280;61545;53.726;-0.444;2024-01-16T22:15:34;992.5;;;2.0;100.0
73316;BME280;61545;53.726;-0.444;2024-01-16T22:20:34;992.5;;;2.0;100.0
73316;BME280;61545;53.726;-0.444;2024-01-16T22:25:34;992.4;;;2.0;100.0
73316;BME280;61545;53.726;-0.444;2024-01-16T22:30:34;992.4;;;1.9;100.0
73316;BME280;61545;53.726;-0.444;2024-01-16T22:35:34;992.3;;;1.9;100.0
73316;BME280;61545;53.726;-0.444;2024-01-16T22:40:34;992.3;;;1.9;100.0
73316;BME280;61545;53.726;-0.444;2024-01-16T22:45:34;992.2;;;1.8;100.0
73316;BME280;61545;53.726;-0.444;2024-01-16T22:50:34;992.3;;;1.9;100.0
73316;BME280;61545;53.726;-0.444;2024-01-16T22:55:34;992.3;;;1.9;100.0
73316;BME280;61545;53.726;-0.444;2024-01-16T23:00:34;992.3;;;2.0;100.0
73316;BME280;61545;53.726;-0.444;2024-01-16T23:05:34;992.3;;;2.0;100.0
73316;BME280;61545;53.726;-0.444;2024-01-16T23:10:34;992.3;;;2.0;100.0
73316;BME280;61545;53.726;-0.444;2024-01-16T23:15:34;992.3;;;2.0;100.0
73316;BME280;61545;53.726;-0.444;2024-01-16T23:20:34;992.2;;;2.0;100.0
73316;BME280;61545;53.726;-0.444;2024-01-16T23:25:34;992.2;;;2.0;100.0
73316;BME280;61545;53.726;-0.444;2024-01-16T23:30:34;992.2;;;2.0;100.0
73316;BME280;61545;53.726;-0.444;2024-01-16T23:35:34;992.2;;;2.0;100.0
73316;BME280;61545;53.726;-0.444;2024-01-16T23:40:34;992.1;;;2.0;100.0
73316;BME280;61545;53.726;-0.444;2024-01-16T23:45:34;992.1;;;2.0;100.0
73316;BME280;61545;53.726;-0.444;2024-01-16T23:50:34;992.2;;;2.0;100.0
73316;BME280;61545;53.726;-0.444;2024-01-16T23:55:34;992.2;;;1.9;100.0
